Date,TemperatureHighF,TemperatureAvgF,TemperatureLowF,DewpointHighF,DewpointAvgF,DewpointLowF,HumidityHigh,HumidityAvg,HumidityLow,PressureMaxIn,PressureMinIn,WindSpeedMaxMPH,WindSpeedAvgMPH,GustSpeedMaxMPH,PrecipitationSumIn
2013-1-1,76.8,61.7,50.9,61.9,56.0,50.4,99,84,55,30.26,30.07,14,0,17,0.00
2013-1-2,80.8,66.9,55.0,67.8,61.8,54.1,99,85,60,30.09,30.00,10,0,11,0.01
2013-1-3,68.7,63.1,57.0,64.8,61.2,54.5,99,94,85,30.22,30.06,14,2,15,0.10
2013-1-4,58.5,55.8,53.1,58.1,55.3,52.5,99,98,97,30.32,30.19,14,3,15,0.25
2013-1-5,71.8,60.3,51.6,61.9,55.6,49.5,97,85,69,30.35,30.22,11,2,12,0.00
2013-1-6,81.0,67.2,58.8,68.5,62.0,56.8,96,85,62,30.25,30.08,10,1,11,0.01
2013-1-7,67.6,60.9,53.4,61.5,57.2,50.2,97,88,71,30.27,30.16,13,3,14,0.22
2013-1-8,78.1,69.3,61.9,70.7,66.6,61.3,99,92,74,30.27,30.17,10,1,11,0.00
2013-1-9,77.5,70.7,65.1,73.0,68.9,64.8,100,94,82,30.34,30.23,6,0,6,0.09
2013-1-10,81.9,70.8,64.0,71.4,66.2,63.1,100,87,58,30.35,30.25,12,0,12,0.01
2013-1-11,82.0,69.7,59.9,70.5,64.6,59.5,100,86,53,30.30,30.19,10,0,10,0.01
2013-1-12,82.8,69.3,59.2,70.3,63.6,58.8,100,84,52,30.24,30.12,7,0,8,0.01
2013-1-13,81.7,69.0,58.5,68.2,63.1,57.9,100,84,51,30.20,30.10,8,0,9,0.00
2013-1-14,79.3,69.0,60.1,68.0,63.9,59.7,100,85,60,30.23,30.14,7,0,8,0.01
2013-1-15,81.5,69.9,62.1,69.3,65.1,61.7,100,86,60,30.19,30.08,5,0,7,0.00
2013-1-16,82.6,68.6,59.7,67.3,62.6,59.4,100,83,49,30.14,30.03,7,0,7,0.01
2013-1-17,78.6,62.8,51.1,69.3,58.3,43.3,100,86,68,30.14,29.98,14,1,18,0.01
2013-1-18,65.8,53.8,39.7,58.5,47.0,34.7,94,78,68,30.32,30.14,23,4,23,0.00
2013-1-19,71.1,62.4,54.3,61.2,57.0,51.4,93,83,67,30.33,30.18,14,3,16,0.00
2013-1-20,71.4,62.6,58.5,62.6,57.8,53.4,98,85,66,30.22,30.09,13,2,13,0.02
2013-1-21,74.5,64.4,58.8,61.2,57.3,55.0,89,78,61,30.13,30.02,9,1,9,0.00
2013-1-22,61.2,55.5,45.0,55.0,44.6,34.7,92,68,38,30.31,30.10,12,2,14,0.00
2013-1-23,66.6,52.7,42.4,44.8,39.1,31.5,92,64,27,30.40,30.30,10,1,11,0.00
2013-1-24,73.2,56.9,42.8,52.3,46.8,40.8,96,72,43,30.35,30.24,12,0,14,0.00
2013-1-25,75.7,60.4,49.8,57.2,51.4,48.2,99,76,43,30.34,30.19,7,0,8,0.00
2013-1-26,75.4,60.3,45.9,59.2,53.0,45.1,99,79,50,30.30,30.19,9,0,11,0.00
2013-1-27,77.4,63.5,50.7,62.8,57.9,49.8,99,84,55,30.35,30.26,15,1,15,0.01
2013-1-28,79.0,69.5,61.9,65.3,62.8,59.7,94,80,61,30.38,30.27,10,0,11,0.00
2013-1-29,82.0,70.9,63.1,69.1,65.2,62.2,99,84,55,30.29,30.13,8,1,10,0.00
2013-1-30,82.6,72.7,63.1,66.4,64.5,61.7,98,77,55,30.14,29.89,20,3,20,0.00
2013-1-31,71.4,57.4,45.7,65.7,41.8,23.0,95,60,23,30.26,29.90,14,2,15,0.04
2013-2-1,70.0,52.5,39.6,37.9,31.7,23.4,74,49,18,30.39,30.26,11,1,12,0.00
2013-2-2,72.0,54.9,39.9,47.7,40.6,34.5,90,62,28,30.35,30.17,8,1,11,0.00
2013-2-3,70.5,54.9,39.6,51.8,41.9,34.3,96,65,35,30.22,30.08,12,1,14,0.00
2013-2-4,70.9,54.1,40.3,46.6,39.3,32.9,97,63,26,30.17,30.07,8,0,8,0.00
2013-2-5,76.5,58.8,41.5,54.3,46.8,38.3,95,68,37,30.14,30.03,7,0,8,0.00
2013-2-6,76.8,66.2,58.1,64.2,59.2,53.6,92,79,51,30.16,30.06,7,0,7,0.00
2013-2-7,80.1,69.9,58.6,65.3,61.8,57.7,99,77,55,30.12,29.89,16,2,17,0.02
2013-2-8,78.4,68.7,58.8,64.6,59.8,55.2,94,75,48,30.11,29.89,13,1,13,0.00
2013-2-9,71.6,61.1,52.3,57.7,54.4,50.9,96,80,58,30.25,30.10,15,2,16,0.00
2013-2-10,78.3,65.1,54.5,60.8,56.5,51.6,92,75,51,30.32,30.20,12,1,12,0.00
2013-2-11,81.9,69.1,56.5,64.0,60.5,55.4,98,76,50,30.25,30.09,15,1,15,0.00
2013-2-12,85.3,72.3,59.9,68.4,63.9,59.0,99,77,49,30.13,29.95,13,1,13,0.00
2013-2-13,84.6,71.1,61.9,70.3,66.4,59.4,96,86,57,29.99,29.84,19,2,19,0.25
2013-2-14,65.5,60.7,54.9,62.1,58.4,54.1,98,93,78,30.09,29.95,10,1,15,0.31
2013-2-15,70.3,57.6,51.3,58.1,52.8,49.6,98,85,61,30.12,29.99,10,1,11,0.01
2013-2-16,67.5,55.4,46.8,52.9,43.3,27.5,95,67,38,30.17,29.92,18,2,24,0.00
2013-2-17,52.5,42.3,33.6,28.6,19.8,7.0,80,43,17,30.38,30.17,17,2,18,0.00
2013-2-18,68.2,49.3,30.0,46.9,36.8,23.9,91,65,40,30.42,30.25,12,1,12,0.00
2013-2-19,78.6,62.4,45.3,57.4,51.7,44.1,99,72,42,30.26,30.07,12,1,16,0.00
2013-2-20,74.7,62.2,54.7,58.5,54.2,50.2,95,76,55,30.18,30.05,11,2,12,0.00
2013-2-21,83.1,67.1,53.6,65.7,59.3,51.3,96,77,49,30.15,30.03,11,0,12,0.00
2013-2-22,86.5,72.0,60.4,70.2,65.2,59.5,100,82,41,30.12,30.01,12,1,14,0.00
2013-2-23,88.2,76.0,69.6,69.1,67.1,62.2,94,76,45,30.04,29.89,16,2,17,0.00
2013-2-24,76.8,68.7,64.2,72.5,66.9,62.6,98,94,80,30.00,29.89,10,0,12,0.76
2013-2-25,85.6,71.9,63.3,72.5,65.9,62.8,99,84,50,29.97,29.79,12,0,15,0.05
2013-2-26,75.9,69.6,63.0,71.6,67.0,60.1,99,92,72,29.89,29.75,17,2,17,0.42
2013-2-27,75.0,64.6,55.0,61.7,54.6,48.0,94,72,43,30.00,29.88,10,1,11,0.00
2013-2-28,72.9,59.8,47.3,54.3,48.6,43.0,97,69,38,30.03,29.89,14,1,14,0.00
2013-3-1,67.5,54.9,47.3,47.5,41.0,32.9,89,62,33,30.04,29.92,11,1,13,0.00
2013-3-2,59.0,49.8,41.5,38.8,33.7,24.4,74,56,28,30.06,29.96,13,2,21,0.00
2013-3-3,53.8,43.4,36.0,32.7,31.1,29.5,80,63,43,30.19,30.02,14,1,16,0.00
2013-3-4,66.0,47.4,31.5,40.3,31.0,23.2,93,60,23,30.27,30.14,14,1,14,0.00
2013-3-5,77.4,59.4,40.1,57.0,44.0,37.6,97,62,31,30.22,30.02,9,1,12,0.00
2013-3-6,68.2,59.0,46.8,61.0,39.2,23.2,92,53,19,30.17,29.93,16,2,16,0.00
2013-3-7,66.7,51.4,37.9,47.5,38.9,31.3,92,64,37,30.25,30.15,11,1,12,0.00
2013-3-8,72.9,55.4,41.4,48.2,43.1,33.8,98,69,24,30.26,30.15,15,1,15,0.00
2013-3-9,73.0,58.9,45.5,53.6,49.1,44.1,96,73,43,30.27,30.18,13,1,15,0.00
2013-3-10,78.3,63.9,51.8,57.7,54.5,50.2,97,74,44,30.22,30.12,13,0,13,0.01
2013-3-11,78.1,65.6,52.7,61.3,57.1,51.8,99,76,50,30.16,29.94,13,1,15,0.00
2013-3-12,72.9,66.1,57.6,66.9,62.2,56.1,96,88,77,30.05,29.89,18,2,18,0.10
2013-3-13,73.9,59.2,48.2,55.9,41.7,29.3,95,59,20,30.20,30.05,18,2,19,0.00
2013-3-14,65.1,52.6,43.3,43.3,35.6,27.0,89,55,25,30.30,30.19,16,2,16,0.00
2013-3-15,72.9,53.9,37.6,45.9,38.3,28.2,98,63,24,30.33,30.17,10,1,12,0.00
2013-3-16,80.4,61.7,43.9,52.0,43.2,36.5,97,58,22,30.22,30.06,10,0,11,0.00
2013-3-17,78.3,63.8,48.0,60.3,52.1,41.9,98,69,41,30.18,30.02,13,1,13,0.00
2013-3-18,80.4,71.0,62.2,65.5,62.5,59.0,93,76,56,30.10,29.92,15,1,16,0.01
2013-3-19,88.0,72.5,62.4,64.8,61.8,55.8,96,72,37,30.06,29.91,11,1,14,0.00
2013-3-20,75.9,65.5,56.5,67.6,61.6,55.6,97,88,69,30.01,29.81,16,1,20,0.54
2013-3-21,71.1,57.9,46.6,55.9,41.4,25.7,98,62,20,30.00,29.89,14,1,14,0.01
2013-3-22,78.6,59.1,42.6,60.4,48.7,40.6,98,73,35,30.06,29.94,12,0,12,0.05
2013-3-23,86.2,71.2,61.2,74.1,65.9,60.1,99,85,59,30.02,29.79,10,1,13,0.04
2013-3-24,82.2,72.2,66.4,73.0,68.5,64.2,98,89,71,29.88,29.63,15,1,19,0.13
2013-3-25,71.8,64.1,53.2,64.6,45.2,25.3,95,57,19,30.06,29.73,13,1,14,0.00
2013-3-26,62.2,52.0,42.8,37.9,29.6,19.4,74,44,20,30.27,30.05,15,1,15,0.00
2013-3-27,64.8,49.7,38.7,40.3,32.9,27.1,85,56,25,30.34,30.22,11,1,14,0.00
2013-3-28,70.0,53.8,38.7,43.7,36.7,25.9,93,59,21,30.33,30.21,13,1,15,0.00
2013-3-29,75.6,57.6,40.6,48.7,39.8,30.9,98,60,21,30.37,30.22,10,0,10,0.00
2013-3-30,80.1,62.6,45.0,55.6,48.1,42.4,98,64,32,30.30,30.14,11,1,12,0.00
2013-3-31,83.7,69.3,57.0,57.4,53.2,48.6,89,60,31,30.20,30.01,17,1,18,0.00
2013-4-1,86.0,71.5,60.4,65.7,60.6,54.5,95,71,45,30.05,29.94,10,1,16,0.00
2013-4-2,82.2,69.6,60.3,62.8,56.8,46.4,99,69,33,30.12,30.02,17,1,17,0.00
2013-4-3,84.7,70.0,59.2,67.8,62.8,58.1,99,80,53,30.12,29.99,12,1,14,0.36
2013-4-4,74.8,69.7,66.0,69.3,66.8,63.3,98,91,81,30.06,29.85,18,1,18,0.36
2013-4-5,78.4,66.6,56.3,68.7,62.4,54.5,97,87,65,30.03,29.83,16,3,17,0.06
2013-4-6,75.0,63.5,53.1,60.3,56.3,50.9,96,79,57,30.18,30.02,17,4,19,0.00
2013-4-7,80.8,67.2,55.8,63.3,58.3,54.9,99,76,46,30.20,30.09,13,1,13,0.00
2013-4-8,85.3,70.1,57.0,66.7,61.0,56.5,99,76,44,30.18,30.09,12,0,12,0.00
2013-4-9,85.1,71.9,61.5,68.9,62.6,55.6,99,76,47,30.21,30.11,11,1,14,0.00
2013-4-10,86.5,72.8,60.3,69.6,64.9,59.2,99,79,46,30.17,30.02,8,1,10,0.00
2013-4-11,88.9,77.4,70.3,73.2,70.7,68.5,97,81,54,30.04,29.85,14,2,14,0.02
2013-4-12,84.6,77.2,72.9,73.9,71.3,69.6,94,83,63,29.93,29.83,21,3,21,0.00
2013-4-13,86.4,74.0,64.0,70.5,65.7,54.7,99,77,48,30.02,29.90,12,1,13,0.00
2013-4-14,87.3,72.8,63.3,75.0,67.4,59.2,98,84,64,30.02,29.86,14,1,21,1.44
2013-4-15,91.4,74.7,64.8,68.0,64.8,61.5,97,74,45,30.11,29.92,10,1,11,0.00
2013-4-16,85.6,74.9,67.6,71.2,68.0,65.8,97,80,59,30.19,30.09,15,2,16,0.00
2013-4-17,82.8,73.0,65.1,70.5,66.7,64.4,99,82,57,30.19,30.09,13,2,15,0.00
2013-4-18,90.9,77.8,64.8,71.6,67.5,61.5,99,74,43,30.10,29.98,9,1,12,0.00
2013-4-19,90.9,78.8,71.8,74.3,71.2,67.6,96,79,48,30.05,29.92,19,2,19,0.14
2013-4-20,73.9,65.4,58.5,70.5,61.6,55.4,93,88,76,30.20,29.98,20,3,20,0.00
2013-4-21,79.9,68.5,58.6,71.4,65.4,55.9,98,90,72,30.18,30.06,13,2,14,0.39
2013-4-22,77.0,67.9,64.0,69.3,66.0,62.2,99,94,73,30.12,30.03,18,4,18,0.60
2013-4-23,78.4,68.6,61.5,65.7,61.4,57.9,98,80,52,30.16,30.05,14,3,18,0.00
2013-4-24,87.1,70.4,55.6,65.3,61.1,54.7,99,75,43,30.18,30.09,8,1,8,0.00
2013-4-25,88.9,73.4,59.9,69.3,62.8,59.0,99,73,39,30.23,30.13,7,0,8,0.00
2013-4-26,86.7,73.8,63.1,68.5,65.1,62.1,98,77,49,30.28,30.18,14,1,15,0.00
2013-4-27,84.2,73.5,65.1,68.9,65.3,61.5,98,78,48,30.27,30.15,15,1,16,0.00
2013-4-28,83.5,72.5,63.7,70.9,65.3,63.0,99,80,55,30.17,30.03,12,1,12,0.00
2013-4-29,87.3,74.2,64.0,71.1,64.5,58.1,99,75,41,30.06,29.92,12,1,20,2.29
2013-4-30,86.5,72.9,66.0,72.9,67.6,64.4,100,86,52,30.05,29.94,21,1,25,1.62
2013-5-1,79.2,72.2,66.9,71.2,68.8,66.4,100,90,70,30.06,29.97,9,1,12,0.03
2013-5-2,74.5,69.1,64.2,70.5,68.0,63.3,99,96,85,30.00,29.85,9,1,9,1.17
2013-5-3,77.4,70.7,66.9,70.2,67.9,66.0,100,91,73,29.87,29.73,25,3,26,0.06
2013-5-4,84.0,73.3,67.5,72.5,69.3,66.9,99,88,65,29.81,29.69,14,1,17,0.10
2013-5-5,79.7,69.7,61.0,67.5,54.9,45.7,94,63,32,29.96,29.77,13,1,14,0.00
2013-5-6,78.6,67.8,57.9,60.6,55.4,51.1,93,67,40,30.03,29.91,10,0,10,0.00
2013-5-7,80.8,67.0,52.7,60.6,56.1,51.1,97,71,44,30.07,29.98,11,0,14,0.00
2013-5-8,84.4,71.2,59.0,64.4,60.0,56.8,98,71,43,30.16,30.04,7,0,10,0.00
2013-5-9,87.1,71.9,59.0,66.7,61.7,58.3,99,74,40,30.18,30.10,12,0,13,0.00
2013-5-10,91.9,76.5,62.1,72.1,66.9,61.2,99,76,40,30.16,30.01,9,1,11,0.00
2013-5-11,93.2,77.2,67.8,73.2,69.4,65.3,98,79,45,30.08,29.98,11,1,11,0.04
2013-5-12,91.0,77.9,66.6,72.0,67.3,64.8,96,72,46,30.06,29.96,11,0,11,0.00
2013-5-13,84.7,72.3,65.7,66.2,59.2,48.9,94,67,33,30.16,30.01,14,2,15,0.00
2013-5-14,84.6,68.8,54.3,57.7,53.1,45.1,95,62,27,30.24,30.16,13,1,13,0.00
2013-5-15,86.7,71.8,56.8,63.1,57.8,54.0,98,66,35,30.25,30.12,9,0,12,0.00
2013-5-16,87.6,73.9,61.2,65.5,62.2,57.2,97,70,38,30.17,30.05,10,1,11,0.00
2013-5-17,90.3,75.4,61.3,69.4,65.3,60.3,98,73,42,30.14,30.06,11,1,13,0.00
2013-5-18,92.3,77.8,66.2,72.5,68.4,61.9,99,76,38,30.15,30.04,11,1,11,0.00
2013-5-19,90.9,77.2,68.9,74.3,70.9,67.6,98,82,55,30.12,30.02,12,1,12,0.13
2013-5-20,91.2,75.5,68.9,73.2,70.3,65.5,99,86,47,30.12,30.01,12,0,14,2.12
2013-5-21,85.3,73.8,69.3,73.9,70.5,66.4,100,90,65,30.08,29.97,9,0,10,0.08
2013-5-22,89.1,74.2,67.6,74.1,70.7,67.3,100,90,54,30.01,29.93,12,0,13,0.37
2013-5-23,92.8,75.4,68.0,75.4,70.8,67.6,100,88,51,30.02,29.93,29,1,29,0.72
2013-5-24,93.4,79.7,69.1,75.4,68.2,61.2,100,73,36,30.13,29.99,12,1,13,0.01
2013-5-25,84.9,75.2,66.9,68.7,64.3,58.6,97,71,45,30.23,30.10,15,2,15,0.00
2013-5-26,84.4,71.9,59.4,63.9,59.7,56.1,99,68,40,30.25,30.17,13,1,14,0.00
2013-5-27,86.2,74.3,63.1,66.4,63.1,59.7,96,71,42,30.22,30.14,12,1,13,0.00
2013-5-28,88.2,76.8,66.4,71.8,68.4,63.3,92,77,56,30.19,30.11,11,1,15,0.00
2013-5-29,88.0,77.8,70.7,75.6,72.1,69.4,99,83,61,30.17,30.09,11,1,13,0.03
2013-5-30,85.3,77.2,72.7,76.5,72.6,69.8,96,86,68,30.16,30.08,16,1,16,0.35
2013-5-31,85.8,77.0,70.7,75.4,71.4,68.4,95,83,66,30.15,30.07,13,1,14,0.15
2013-6-1,84.6,76.4,71.4,77.4,73.1,70.2,98,90,72,30.11,30.01,10,1,13,0.41
2013-6-2,93.0,77.9,71.2,77.9,74.3,70.9,100,90,56,30.05,29.90,18,1,20,1.85
2013-6-3,90.9,79.2,72.1,78.1,74.3,71.8,100,86,58,30.03,29.89,12,0,14,0.21
2013-6-4,90.0,76.8,70.5,76.1,73.0,70.0,99,89,59,30.07,29.96,8,0,10,1.14
2013-6-5,85.1,74.1,70.3,77.9,72.5,69.8,100,95,72,30.05,29.94,12,0,12,0.78
2013-6-6,79.5,74.5,71.4,77.2,73.0,69.4,100,95,75,29.95,29.67,20,2,23,2.15
2013-6-7,92.1,81.2,72.7,75.6,72.9,71.1,95,77,56,29.97,29.77,15,1,15,0.00
2013-6-8,93.6,78.0,71.1,76.6,72.4,69.4,98,85,55,30.12,29.97,11,0,11,0.44
2013-6-9,90.9,77.7,69.6,79.2,73.8,69.3,100,89,61,30.14,30.05,8,0,10,0.38
2013-6-10,94.3,79.6,71.8,77.2,73.6,69.4,100,84,50,30.13,30.03,19,0,21,0.46
2013-6-11,91.8,76.8,72.3,78.4,74.1,69.8,100,92,60,30.11,30.04,18,0,18,0.29
2013-6-12,97.0,82.1,70.7,77.4,73.4,69.1,100,78,43,30.10,30.00,8,0,11,0.04
2013-6-13,96.4,84.1,72.9,77.5,73.6,71.4,97,73,48,30.06,29.90,8,0,9,0.00
2013-6-14,93.6,83.2,74.8,75.9,73.1,69.4,96,74,47,29.96,29.85,10,0,12,0.00
2013-6-15,89.1,81.1,76.1,77.5,74.0,70.9,95,80,63,30.10,29.93,14,1,14,0.00
2013-6-16,90.3,79.9,74.5,78.4,74.7,71.6,98,85,63,30.12,30.05,14,1,14,2.00
2013-6-17,93.6,80.3,71.2,80.2,76.3,69.6,99,89,58,30.11,29.99,19,0,20,2.23
2013-6-18,95.4,82.7,71.6,78.1,74.4,71.2,100,79,48,30.09,29.96,10,0,11,0.00
2013-6-19,95.5,83.6,74.3,78.1,74.7,68.4,98,77,47,30.06,29.97,8,0,8,0.00
2013-6-20,96.4,80.8,72.5,77.0,73.0,67.5,97,79,40,30.12,30.03,13,0,13,0.13
2013-6-21,93.6,77.1,70.7,75.9,72.1,68.9,100,87,51,30.15,30.06,15,0,15,0.88
2013-6-22,91.9,78.6,70.2,78.3,73.2,69.6,100,85,54,30.15,30.08,14,1,15,0.01
2013-6-23,89.8,79.2,71.2,78.8,74.5,70.9,100,86,62,30.18,30.10,8,0,9,0.49
2013-6-24,92.7,81.6,72.9,77.2,74.2,72.5,99,80,54,30.22,30.11,12,0,12,0.00
2013-6-25,92.5,81.5,72.0,76.6,73.4,69.4,99,79,51,30.19,30.07,10,1,10,0.00
2013-6-26,94.5,80.3,74.1,77.9,74.4,71.1,99,84,52,30.11,30.02,10,1,12,0.05
2013-6-27,96.8,81.0,70.5,77.0,73.4,69.8,99,80,47,30.07,29.94,10,0,11,0.00
2013-6-28,95.7,80.4,72.0,78.1,74.2,68.9,99,83,50,29.99,29.86,15,1,15,1.41
2013-6-29,91.6,80.0,73.4,79.0,74.7,70.9,99,85,59,29.91,29.80,11,1,14,0.59
2013-6-30,93.6,77.9,73.2,77.9,74.0,72.1,98,89,57,29.91,29.83,22,1,22,0.32
2013-7-1,85.8,76.3,73.0,75.6,73.0,71.2,98,90,69,30.06,29.88,23,2,28,0.53
2013-7-2,86.0,75.9,72.5,79.2,74.1,72.1,100,94,76,30.13,30.01,9,0,11,0.13
2013-7-3,89.4,77.6,71.8,79.2,74.6,71.2,100,91,70,30.17,30.09,17,1,17,0.08
2013-7-4,91.9,79.1,71.4,78.3,73.7,68.5,100,85,57,30.20,30.10,15,1,21,0.47
2013-7-5,90.3,79.8,71.4,80.6,74.6,70.9,100,85,59,30.19,30.09,16,1,16,0.78
2013-7-6,92.3,80.3,73.0,77.0,74.5,72.1,99,85,54,30.16,30.11,11,1,12,0.00
2013-7-7,91.0,84.1,75.9,77.9,74.9,73.4,94,75,58,30.17,30.08,11,1,12,0.00
2013-7-8,92.8,81.8,73.4,77.4,74.5,72.3,99,80,53,30.20,30.11,8,0,9,0.01
2013-7-9,91.2,81.1,72.9,77.0,72.9,68.0,100,79,49,30.19,30.09,12,1,12,0.00
2013-7-10,93.6,81.5,72.1,75.9,73.4,70.9,99,78,52,30.12,29.99,8,1,8,0.00
2013-7-11,94.8,81.2,73.0,75.0,72.9,69.8,97,78,47,30.06,29.92,13,1,17,0.00
2013-7-12,92.1,78.9,72.7,76.8,74.1,72.1,99,86,58,29.98,29.91,11,0,13,0.07
2013-7-13,93.4,78.7,72.3,77.5,73.5,71.6,99,85,53,30.03,29.93,13,1,15,0.10
2013-7-14,90.3,77.6,70.7,77.0,73.1,70.2,99,87,61,30.13,30.00,10,1,13,0.00
2013-7-15,87.1,77.8,69.6,77.5,73.2,69.3,100,86,69,30.16,30.06,15,2,16,0.17
2013-7-16,90.7,79.2,73.0,76.3,73.6,70.7,97,85,58,30.19,30.13,12,1,14,0.25
2013-7-17,88.9,79.1,74.7,77.5,74.8,72.5,98,88,62,30.19,30.11,16,1,20,0.24
2013-7-18,88.3,77.9,72.0,76.8,73.6,71.1,99,88,63,30.15,30.08,10,0,14,0.24
2013-7-19,92.1,77.5,71.6,76.8,73.1,70.5,100,88,60,30.17,30.06,11,1,13,1.36
2013-7-20,92.1,77.3,72.3,79.2,74.2,71.4,100,92,58,30.13,30.04,17,0,17,1.14
2013-7-21,95.4,79.4,72.0,80.4,74.7,71.6,100,87,50,30.15,30.04,8,0,8,0.01
2013-7-22,94.5,79.5,74.3,79.3,74.5,70.7,98,86,55,30.14,30.08,11,1,17,0.02
2013-7-23,88.2,77.2,74.1,77.9,74.3,72.1,99,91,70,30.11,29.97,9,0,11,0.52
2013-7-24,86.4,78.6,73.4,79.7,75.7,72.3,98,91,76,30.01,29.89,12,1,12,1.27
2013-7-25,89.4,79.8,75.6,78.3,75.2,72.7,97,86,65,30.00,29.88,14,0,17,0.03
2013-7-26,92.7,81.4,73.4,79.3,75.5,73.0,100,84,58,30.03,29.96,11,1,12,0.02
2013-7-27,93.6,81.1,74.1,79.2,75.9,73.8,100,86,55,30.02,29.91,7,0,8,0.00
2013-7-28,95.2,78.4,72.5,78.4,73.9,70.9,100,88,48,30.09,29.96,11,0,15,0.67
2013-7-29,95.4,79.8,71.4,77.9,74.7,71.1,100,86,54,30.18,30.05,8,0,10,0.09
2013-7-30,96.3,83.3,74.8,79.7,75.8,71.6,100,81,49,30.20,30.10,9,0,10,0.01
2013-7-31,95.4,82.3,74.5,79.2,75.5,70.7,100,82,51,30.17,30.03,11,0,12,0.00
2013-8-1,93.7,79.2,72.0,77.7,74.0,70.0,100,86,48,30.10,29.98,9,0,11,0.45
2013-8-2,91.8,81.1,73.0,78.6,74.3,72.0,100,82,55,30.06,29.96,12,1,12,0.01
2013-8-3,94.8,80.9,75.0,79.0,75.3,73.4,98,85,55,30.12,30.02,15,1,18,0.31
2013-8-4,90.5,80.1,74.7,80.4,76.3,73.9,99,89,69,30.10,29.99,8,0,11,0.09
2013-8-5,95.5,81.7,75.4,81.1,77.1,74.3,98,87,57,30.04,29.93,9,1,10,0.03
2013-8-6,95.2,81.6,73.6,79.0,76.0,73.0,100,85,58,30.00,29.92,8,0,12,0.00
2013-8-7,94.5,82.7,75.4,79.3,76.7,75.0,99,83,56,30.01,29.94,7,0,8,0.00
2013-8-8,93.4,82.9,75.0,79.0,76.0,72.7,100,82,54,30.08,29.98,9,1,9,0.03
2013-8-9,95.4,83.3,74.7,78.8,75.3,72.3,99,79,51,30.10,30.00,11,1,11,0.00
2013-8-10,95.4,83.0,72.9,78.6,75.0,72.0,99,79,53,30.16,30.06,9,1,10,0.00
2013-8-11,97.5,83.6,74.1,79.2,75.1,68.7,100,78,42,30.19,30.09,9,0,9,0.00
2013-8-12,95.4,83.2,73.9,77.5,74.7,71.2,99,77,53,30.16,30.02,8,0,9,0.00
2013-8-13,98.4,85.1,73.9,76.6,74.1,67.3,99,73,40,30.08,29.94,7,1,8,0.00
2013-8-14,97.3,81.7,74.8,79.2,74.9,71.2,98,82,48,30.04,29.90,10,0,10,1.22
2013-8-15,95.2,82.1,73.8,78.8,74.9,67.1,100,82,44,30.06,29.94,17,1,18,0.23
2013-8-16,94.5,81.4,75.6,79.2,75.5,70.2,100,84,51,30.09,29.97,13,1,14,0.02
2013-8-17,94.5,81.8,75.0,80.4,76.5,73.2,100,86,57,30.12,30.01,9,1,9,0.09
2013-8-18,92.5,82.8,75.7,79.5,76.2,73.4,100,82,59,30.13,30.04,12,1,12,0.01
2013-8-19,90.9,80.0,74.8,79.7,76.0,72.3,99,88,63,30.12,30.00,10,0,12,0.15
2013-8-20,95.2,82.9,74.8,79.2,76.1,73.6,100,82,52,30.13,30.02,12,1,14,0.00
2013-8-21,91.2,79.3,75.6,80.1,76.4,73.6,99,91,66,30.15,30.07,12,1,12,0.22
2013-8-22,91.0,77.9,72.1,81.0,76.0,70.5,99,94,68,30.12,30.02,14,1,20,1.22
2013-8-23,89.4,78.5,74.1,81.1,76.2,73.9,100,93,68,30.06,29.99,10,1,11,0.26
2013-8-24,91.0,78.1,74.1,80.2,75.2,72.1,100,92,60,30.15,30.03,19,1,22,0.09
2013-8-25,85.6,79.0,73.6,77.7,75.0,73.2,100,88,72,30.19,30.11,13,2,13,0.01
2013-8-26,88.3,79.6,73.6,77.9,74.8,72.7,99,86,66,30.18,30.05,15,2,18,0.07
2013-8-27,89.8,78.9,72.0,76.1,72.0,67.8,100,81,54,30.10,30.02,12,1,14,0.02
2013-8-28,91.6,79.3,69.1,74.7,70.2,67.6,100,76,50,30.09,30.00,10,0,11,0.00
2013-8-29,91.9,81.0,70.3,74.7,72.0,68.9,99,76,50,30.06,29.94,9,0,9,0.00
2013-8-30,96.3,81.7,72.5,77.7,73.9,71.4,98,80,47,30.01,29.89,11,0,11,0.12
2013-8-31,93.4,80.6,70.9,77.9,73.9,69.3,100,83,53,30.00,29.89,16,1,19,2.96
2013-9-1,94.5,79.8,71.1,77.9,73.6,71.1,100,84,50,30.02,29.91,15,0,16,0.41
2013-9-2,95.0,81.2,72.0,77.7,73.9,71.2,100,81,49,30.04,29.93,12,1,13,0.01
2013-9-3,93.2,82.7,73.2,77.9,74.5,69.3,99,78,48,30.04,29.93,7,0,7,0.00
2013-9-4,95.4,79.8,72.0,78.1,74.6,70.2,99,86,52,30.12,30.00,12,0,16,0.42
2013-9-5,94.8,81.1,71.2,78.8,74.7,70.7,100,83,52,30.13,30.02,6,0,8,0.01
2013-9-6,92.8,77.1,70.9,79.7,74.4,69.4,100,92,59,30.08,29.99,24,1,28,1.81
2013-9-7,89.2,78.0,71.2,77.7,73.3,70.9,100,87,60,30.05,29.96,16,2,17,0.05
2013-9-8,88.5,79.2,71.2,75.6,72.9,70.7,99,82,60,30.00,29.91,14,2,17,0.00
2013-9-9,90.5,79.5,71.8,74.7,71.6,68.2,98,78,50,30.07,29.97,14,1,14,0.00
2013-9-10,89.1,79.7,73.2,75.0,72.6,66.9,97,80,50,30.13,30.03,15,2,16,0.00
2013-9-11,89.8,80.6,74.8,76.6,73.7,69.8,97,81,55,30.12,30.03,12,1,15,0.00
2013-9-12,90.0,79.2,73.0,76.8,74.1,71.4,99,85,56,30.06,29.92,14,1,14,0.00
2013-9-13,92.3,80.1,71.4,76.5,73.6,70.9,100,83,52,29.94,29.81,10,0,11,0.00
2013-9-14,92.7,82.0,74.1,76.3,74.6,71.8,99,80,54,30.01,29.85,10,0,10,0.00
2013-9-15,92.8,80.4,75.4,79.7,75.9,73.0,99,87,55,30.10,29.99,12,1,13,0.12
2013-9-16,92.1,80.7,72.9,76.5,73.7,70.7,99,81,53,30.11,30.01,9,1,10,0.00
2013-9-17,88.9,80.1,73.2,76.6,73.9,71.6,98,83,61,30.10,29.99,16,2,21,0.00
2013-9-18,88.3,78.9,72.3,76.6,73.4,70.9,97,84,64,30.07,30.00,15,2,17,0.37
2013-9-19,90.0,78.5,72.1,76.8,72.8,68.7,96,84,57,30.09,30.01,15,1,16,0.00
2013-9-20,88.5,77.4,69.1,72.3,69.7,67.3,98,79,56,30.06,29.94,12,1,13,0.00
2013-9-21,91.8,78.7,68.5,74.1,70.2,68.2,100,78,48,29.98,29.78,7,0,7,0.00
2013-9-22,91.6,78.1,72.9,76.8,73.5,70.3,100,87,58,29.88,29.77,12,1,15,0.67
2013-9-23,84.0,75.8,72.3,78.8,75.0,72.0,100,98,83,29.99,29.86,10,0,11,0.77
2013-9-24,86.4,76.0,71.1,77.5,74.0,69.6,100,94,73,29.99,29.86,15,0,18,0.30
2013-9-25,84.4,76.6,72.0,74.5,73.1,70.5,99,89,71,29.87,29.79,10,0,10,0.03
2013-9-26,90.9,80.2,72.0,79.2,73.3,63.3,99,82,43,29.90,29.79,13,2,17,0.00
2013-9-27,80.1,73.0,69.3,75.9,71.4,68.5,99,95,81,29.99,29.88,16,2,18,0.18
2013-9-28,81.3,74.2,70.3,75.0,71.1,68.7,100,91,73,30.06,29.94,11,1,13,0.21
2013-9-29,87.3,75.5,67.6,73.8,69.6,66.2,99,83,54,30.03,29.94,14,2,15,0.00
2013-9-30,88.5,75.9,67.3,72.9,69.5,64.2,100,82,46,30.05,29.94,14,1,14,0.00
2013-10-1,87.1,77.8,73.2,74.5,71.1,68.9,92,80,63,30.10,30.01,12,1,13,0.00
2013-10-2,86.5,76.3,69.1,72.3,69.1,66.9,94,79,61,30.10,30.03,12,1,13,0.00
2013-10-3,90.3,77.3,67.6,75.6,70.3,66.2,98,81,49,30.11,30.02,10,0,11,0.00
2013-10-4,89.4,78.0,70.0,75.0,71.8,69.6,100,83,55,30.12,30.02,10,0,12,0.00
2013-10-5,87.3,77.5,70.0,75.4,72.2,68.9,99,85,62,30.09,29.99,13,1,13,0.00
2013-10-6,91.8,77.6,70.9,76.5,72.9,70.5,100,87,52,30.01,29.89,11,0,12,1.22
2013-10-7,84.0,74.5,71.6,77.2,73.1,70.3,100,96,75,29.91,29.77,11,0,13,1.13
2013-10-8,88.2,76.4,72.5,77.2,73.8,71.1,100,92,68,29.98,29.79,18,2,20,0.12
2013-10-9,77.4,71.7,66.9,71.2,68.3,65.1,96,89,76,30.07,29.96,15,5,16,0.00
2013-10-10,84.0,72.4,63.9,70.0,66.0,63.3,98,82,55,30.09,29.99,11,2,13,0.00
2013-10-11,86.9,72.6,62.2,69.6,65.6,61.9,100,81,50,30.08,29.96,8,0,8,0.01
2013-10-12,85.8,74.0,65.1,69.1,64.6,59.2,99,76,43,30.07,29.99,11,1,11,0.00
2013-10-13,86.2,74.3,63.3,67.8,64.1,59.0,99,74,44,30.12,30.02,10,1,11,0.00
2013-10-14,84.0,73.7,67.5,69.8,67.5,65.7,96,82,59,30.08,29.96,16,3,16,0.00
2013-10-15,80.1,72.7,67.3,72.3,69.6,66.0,98,91,76,30.03,29.92,8,1,10,0.00
2013-10-16,87.1,75.5,69.4,73.6,71.0,65.5,100,87,52,30.01,29.92,10,1,10,0.00
2013-10-17,87.3,76.2,68.5,75.4,70.9,68.2,100,86,58,30.01,29.91,8,0,8,0.00
2013-10-18,91.2,78.1,68.7,75.7,71.2,68.5,100,82,50,30.02,29.91,6,0,7,0.01
2013-10-19,90.3,78.7,69.4,75.6,72.0,69.1,100,82,56,29.98,29.88,9,1,11,0.00
2013-10-20,84.2,76.8,73.0,74.7,72.6,69.6,98,88,71,30.00,29.89,11,2,13,0.00
2013-10-21,90.9,78.5,71.2,77.5,73.7,69.6,98,86,58,30.03,29.93,10,1,12,0.00
2013-10-22,90.9,79.5,72.3,77.2,73.0,70.0,100,82,54,29.98,29.83,9,0,12,0.00
2013-10-23,81.3,73.2,64.6,71.1,62.6,50.0,98,72,39,30.04,29.82,16,2,16,0.02
2013-10-24,69.6,63.9,58.6,59.5,55.2,49.3,91,74,64,30.19,30.04,10,2,12,0.00
2013-10-25,78.3,66.1,56.8,59.7,56.2,51.8,97,73,41,30.27,30.18,13,2,13,0.00
2013-10-26,77.7,65.5,53.2,58.5,55.1,49.6,97,72,39,30.25,30.13,9,1,10,0.00
2013-10-27,77.9,64.3,54.0,59.5,55.6,51.6,98,76,46,30.18,30.09,9,1,9,0.00
2013-10-28,82.4,67.5,53.4,65.3,60.1,52.5,99,80,45,30.22,30.13,12,1,12,0.00
2013-10-29,81.7,71.0,61.5,67.5,64.4,60.6,99,81,52,30.26,30.18,16,3,17,0.01
2013-10-30,83.5,72.1,64.8,69.8,66.0,63.7,97,83,54,30.27,30.14,10,1,11,0.00
2013-10-31,86.2,74.1,64.2,70.5,67.4,63.9,100,82,53,30.17,30.01,11,1,11,0.00
2013-11-1,89.2,77.3,68.4,72.9,68.7,63.5,99,77,47,30.03,29.88,14,1,17,0.00
2013-11-2,74.8,68.7,61.0,72.7,66.4,60.1,98,92,85,30.01,29.83,12,1,16,0.75
2013-11-3,73.8,64.1,55.9,60.3,54.8,46.4,99,75,40,30.15,29.99,17,3,17,0.01
2013-11-4,78.3,68.2,58.8,65.5,60.2,55.2,90,77,48,30.22,30.13,15,2,20,0.00
2013-11-5,80.4,72.5,67.8,68.9,66.9,63.1,97,83,62,30.20,30.13,18,2,20,0.22
2013-11-6,80.8,71.9,66.0,70.7,67.8,65.1,98,88,65,30.16,30.07,9,2,13,0.01
2013-11-7,78.4,71.0,65.3,71.4,68.1,64.8,100,91,71,30.09,29.99,8,1,8,0.00
2013-11-8,75.4,67.0,60.6,66.0,62.1,52.3,99,85,72,30.17,30.02,17,4,17,0.00
2013-11-9,78.6,68.7,60.3,65.7,61.8,58.3,96,80,59,30.22,30.14,14,1,15,0.00
2013-11-10,80.6,69.2,61.2,67.6,64.4,59.7,99,86,56,30.21,30.12,15,2,15,0.00
2013-11-11,79.5,70.1,63.5,68.7,65.0,61.9,97,85,64,30.20,30.11,11,2,13,0.00
2013-11-12,77.7,68.2,61.3,68.7,64.0,58.6,100,87,67,30.15,30.03,12,2,12,0.01
2013-11-13,65.7,59.6,54.9,59.5,51.8,48.0,87,76,62,30.36,30.11,25,7,27,0.00
2013-11-14,74.7,62.2,52.2,60.4,54.9,49.6,93,78,52,30.35,30.22,15,1,16,0.00
2013-11-15,72.9,65.9,59.2,66.2,62.7,57.0,97,90,75,30.24,30.11,10,1,10,0.15
2013-11-16,75.2,69.3,65.7,71.8,68.1,64.6,99,96,87,30.18,30.06,8,1,9,0.13
2013-11-17,86.2,74.9,67.8,74.7,70.1,67.5,100,87,62,30.12,30.01,9,0,11,0.00
2013-11-18,83.7,74.6,68.2,72.5,69.8,67.6,100,86,66,30.06,29.94,6,0,8,0.00
2013-11-19,74.8,69.2,63.9,69.3,63.5,56.8,98,83,63,30.02,29.91,13,3,17,0.00
2013-11-20,80.4,70.5,63.9,72.0,66.9,62.1,97,89,71,30.15,30.00,9,1,11,0.18
2013-11-21,78.3,71.4,68.9,71.6,69.4,67.8,98,93,80,30.23,30.13,12,1,14,0.06
2013-11-22,80.2,72.8,65.8,71.2,67.8,64.4,96,85,63,30.24,30.14,11,1,12,0.00
2013-11-23,85.1,72.0,63.7,68.9,65.8,63.1,100,83,50,30.14,30.02,6,0,7,0.01
2013-11-24,69.8,64.2,60.1,66.6,58.2,52.7,94,81,69,30.29,30.06,21,6,24,0.00
2013-11-25,75.0,66.6,61.5,61.2,57.1,52.9,87,72,54,30.29,30.12,13,1,14,0.00
2013-11-26,81.7,73.0,65.1,72.9,68.8,61.2,98,87,70,30.12,29.75,15,2,19,0.29
2013-11-27,74.7,61.1,41.0,71.6,56.2,37.0,97,84,64,30.24,29.71,14,2,20,0.32
2013-11-28,63.3,48.9,34.5,52.2,43.0,31.8,92,81,63,30.38,30.24,15,3,16,0.00
2013-11-29,68.4,58.2,49.6,60.3,53.3,47.5,96,84,67,30.41,30.32,18,5,20,0.00
2013-11-30,75.4,64.4,56.8,64.0,60.1,54.3,98,87,62,30.35,30.23,16,4,17,0.01
2013-12-1,74.5,64.5,60.6,65.8,62.4,60.1,99,93,74,30.23,30.00,10,2,10,0.00
2013-12-2,72.9,63.0,55.8,62.6,58.8,54.5,100,88,56,30.01,29.84,8,0,8,0.00
2013-12-3,78.3,64.2,52.2,61.7,58.2,51.6,100,83,54,30.03,29.92,8,0,9,0.00
2013-12-4,82.2,68.8,58.8,70.0,63.5,57.9,99,85,55,30.12,30.00,6,0,8,0.01
2013-12-5,83.5,70.6,60.4,69.6,65.4,60.1,100,85,58,30.21,30.11,7,0,7,0.00
2013-12-6,83.8,72.4,64.0,73.0,67.6,63.3,100,86,60,30.21,30.12,11,1,12,0.00
2013-12-7,84.0,72.3,64.8,70.7,66.0,62.4,99,83,52,30.27,30.17,6,0,7,0.00
2013-12-8,83.7,71.3,63.1,72.9,66.5,62.6,100,87,55,30.27,30.13,13,0,13,0.01
2013-12-9,83.8,72.1,63.3,73.2,66.8,62.8,100,85,54,30.22,30.11,12,1,13,0.01
2013-12-10,83.8,72.5,62.6,70.7,65.6,60.1,99,81,54,30.23,30.08,17,2,18,0.00
2013-12-11,80.2,67.4,56.3,68.7,61.3,53.4,92,82,67,30.29,30.18,15,3,16,0.00
2013-12-12,67.6,59.9,52.2,59.7,48.1,29.3,96,69,29,30.37,30.23,16,4,18,0.00
2013-12-13,73.2,59.4,48.4,56.8,52.0,44.4,95,78,52,30.31,30.17,12,1,12,0.00
2013-12-14,81.7,70.0,58.8,71.2,65.4,56.1,98,86,67,30.17,29.95,15,1,18,0.01
2013-12-15,73.0,66.4,58.1,70.2,62.5,54.7,97,88,73,30.15,29.88,15,2,17,0.18
2013-12-16,62.2,53.4,44.4,54.7,46.6,42.8,94,79,56,30.27,30.15,14,2,14,0.00
2013-12-17,72.0,55.5,43.9,55.0,48.7,41.7,95,79,54,30.29,30.18,8,1,8,0.00
2013-12-18,67.1,54.5,44.8,47.5,44.8,40.5,98,72,46,30.32,30.22,15,1,15,0.00
2013-12-19,75.4,58.2,43.2,59.7,51.5,41.2,96,80,50,30.32,30.21,8,0,8,0.00
2013-12-20,82.2,65.6,52.2,64.9,59.2,51.4,99,82,53,30.25,30.14,11,0,11,0.00
2013-12-21,84.6,71.7,61.9,72.0,67.5,61.2,99,88,61,30.19,30.06,9,1,12,0.01
2013-12-22,84.6,73.6,65.1,73.2,68.7,64.8,100,86,62,30.17,30.10,15,1,16,0.01
2013-12-23,85.6,74.1,64.9,73.4,68.7,64.4,99,85,56,30.20,30.09,16,1,16,0.00
2013-12-24,72.0,61.8,50.9,71.1,52.9,30.6,98,75,31,30.30,30.11,16,4,17,0.14
2013-12-25,75.6,57.9,44.6,58.1,50.3,39.7,95,77,52,30.30,30.19,9,2,11,0.00
2013-12-26,73.8,60.8,55.8,63.5,57.9,55.0,99,91,68,30.27,30.14,14,3,15,0.00
2013-12-27,68.4,62.8,57.6,64.4,60.7,56.1,97,93,86,30.30,30.21,13,4,16,0.00
2013-12-28,76.5,68.6,63.7,71.8,67.2,62.8,100,95,80,30.26,30.04,11,1,11,0.12
2013-12-29,77.4,71.4,64.9,73.2,69.8,64.6,99,95,85,30.05,29.91,13,1,17,0.41
2013-12-30,68.9,60.8,55.8,64.6,56.3,49.5,99,86,54,30.24,30.01,9,1,10,0.01
2013-12-31,68.0,59.9,54.7,55.0,52.3,48.2,96,77,51,30.34,30.20,10,2,13,0.00
2014-1-1,63.7,60.1,57.6,62.4,58.7,54.3,99,95,86,30.30,30.09,11,3,12,0.08
2014-1-2,81.0,67.0,57.6,72.5,65.6,53.8,100,96,71,30.09,29.83,24,2,25,0.24